createdAt,value
2019-05-14T00:01:22.182Z,91.00
2019-05-14T00:03:51.800Z,91.20
2019-05-14T00:06:21.934Z,90.80
2019-05-14T00:08:52.221Z,91.10
2019-05-14T00:11:21.956Z,90.60
2019-05-14T00:13:52.026Z,90.90
2019-05-14T00:16:24.231Z,90.20
2019-05-14T00:18:52.135Z,91.30
2019-05-14T00:21:21.270Z,91.10
2019-05-14T00:23:51.414Z,91.30
2019-05-14T00:26:21.476Z,90.90
2019-05-14T00:28:51.341Z,89.80
2019-05-14T00:31:21.310Z,91.00
2019-05-14T00:33:51.235Z,91.20
2019-05-14T00:36:21.492Z,90.20
2019-05-14T00:38:51.256Z,90.80
2019-05-14T00:41:21.462Z,91.10
2019-05-14T00:43:51.465Z,91.00
2019-05-14T00:46:21.292Z,91.30
2019-05-14T00:48:51.486Z,91.10
2019-05-14T00:51:21.512Z,90.50
2019-05-14T00:53:51.620Z,90.40
2019-05-14T00:56:21.585Z,90.90
2019-05-14T00:58:52.114Z,91.00
2019-05-14T01:01:21.627Z,90.30
2019-05-14T01:03:52.166Z,91.00
2019-05-14T01:06:21.909Z,91.10
2019-05-14T01:08:51.874Z,91.20
2019-05-14T01:11:22.168Z,90.50
2019-05-14T01:13:52.195Z,91.20
2019-05-14T01:16:22.443Z,91.10
2019-05-14T01:18:51.853Z,91.10
2019-05-14T01:21:21.941Z,91.00
2019-05-14T01:23:51.525Z,90.80
2019-05-14T01:26:21.740Z,90.70
2019-05-14T01:28:51.486Z,90.40
2019-05-14T01:31:22.003Z,91.00
2019-05-14T01:33:51.633Z,90.70
2019-05-14T01:36:21.530Z,91.20
2019-05-14T01:38:51.419Z,91.00
2019-05-14T01:41:22.356Z,90.70
2019-05-14T01:43:51.334Z,90.80
2019-05-14T01:46:21.125Z,91.20
2019-05-14T01:48:52.131Z,91.10
2019-05-14T01:51:22.304Z,91.10
2019-05-14T01:53:52.172Z,91.20
2019-05-14T01:56:21.405Z,90.80
2019-05-14T01:58:52.296Z,91.40
2019-05-14T02:01:21.903Z,91.00
2019-05-14T02:03:51.890Z,91.30
2019-05-14T02:06:21.367Z,90.80
2019-05-14T02:08:51.489Z,91.50
2019-05-14T02:11:21.404Z,91.60
2019-05-14T02:13:51.916Z,91.60
2019-05-14T02:16:21.947Z,91.20
2019-05-14T02:18:52.298Z,91.30
2019-05-14T02:21:22.895Z,91.60
2019-05-14T02:23:52.450Z,90.40
2019-05-14T02:26:22.078Z,91.60
2019-05-14T02:28:51.538Z,91.40
2019-05-14T02:31:20.735Z,91.40
2019-05-14T02:33:50.393Z,91.50
2019-05-14T02:36:19.783Z,91.70
2019-05-14T02:38:49.497Z,91.50
2019-05-14T02:41:19.526Z,91.80
2019-05-14T02:43:50.237Z,92.00
2019-05-14T02:46:22.029Z,90.70
2019-05-14T02:48:49.930Z,92.10
2019-05-14T02:51:19.877Z,92.20
2019-05-14T02:53:49.763Z,92.30
2019-05-14T02:56:20.466Z,91.60
2019-05-14T02:58:50.108Z,92.30
2019-05-14T03:01:20.053Z,92.70
2019-05-14T03:03:49.864Z,92.40
2019-05-14T03:06:20.017Z,92.10
2019-05-14T03:08:49.539Z,92.20
2019-05-14T03:11:20.144Z,92.00
2019-05-14T03:13:49.749Z,92.20
2019-05-14T03:16:30.046Z,92.30
2019-05-14T03:18:50.504Z,92.20
2019-05-14T03:21:20.013Z,92.70
2019-05-14T03:23:49.830Z,92.90
2019-05-14T03:26:20.007Z,92.70
2019-05-14T03:28:49.819Z,92.60
2019-05-14T03:31:22.576Z,92.90
2019-05-14T03:33:52.352Z,92.90
2019-05-14T03:36:26.753Z,92.60
2019-05-14T03:38:51.194Z,91.90
2019-05-14T03:41:20.234Z,92.60
2019-05-14T03:43:49.659Z,93.10
2019-05-14T03:46:20.563Z,92.60
2019-05-14T03:48:49.871Z,93.10
2019-05-14T03:51:20.310Z,93.00
2019-05-14T03:54:01.330Z,92.90
2019-05-14T03:56:20.352Z,93.20
2019-05-14T03:58:49.675Z,93.60
2019-05-14T04:01:20.296Z,93.20
2019-05-14T04:03:50.639Z,93.30
2019-05-14T04:06:21.967Z,93.30
2019-05-14T04:08:51.227Z,93.40
2019-05-14T04:11:22.441Z,93.40
2019-05-14T04:13:53.949Z,93.40
2019-05-14T04:16:23.864Z,93.70
2019-05-14T04:18:55.019Z,94.10
2019-05-14T04:21:24.826Z,93.90
2019-05-14T04:23:55.651Z,92.50
2019-05-14T04:26:24.761Z,93.70
2019-05-14T04:29:00.213Z,92.90
2019-05-14T04:31:30.491Z,93.90
2019-05-14T04:34:01.587Z,93.90
2019-05-14T04:36:30.674Z,93.30
2019-05-14T04:39:00.760Z,94.20
2019-05-14T04:41:30.253Z,94.20
2019-05-14T04:43:59.664Z,94.00
2019-05-14T04:46:30.258Z,94.50
2019-05-14T04:48:59.485Z,93.90
2019-05-14T04:51:30.161Z,93.80
2019-05-14T04:53:59.822Z,94.10
2019-05-14T04:56:30.209Z,93.60
2019-05-14T04:58:59.913Z,93.50
2019-05-14T05:01:29.628Z,93.90
2019-05-14T05:03:59.401Z,93.70
2019-05-14T05:06:29.276Z,93.30
2019-05-14T05:09:00.025Z,93.20
2019-05-14T05:11:29.345Z,93.10
2019-05-14T05:13:59.435Z,93.50
2019-05-14T05:16:29.583Z,93.90
2019-05-14T05:18:59.415Z,93.80
2019-05-14T05:21:28.445Z,93.70
2019-05-14T05:23:58.506Z,94.10
2019-05-14T05:26:28.658Z,93.30
2019-05-14T05:29:03.586Z,93.50
2019-05-14T05:31:29.029Z,93.30
2019-05-14T05:33:58.633Z,93.30
2019-05-14T05:36:28.998Z,93.80
2019-05-14T05:38:59.418Z,93.50
2019-05-14T05:41:28.392Z,93.60
2019-05-14T05:43:58.854Z,93.40
2019-05-14T05:46:28.658Z,93.70
2019-05-14T05:48:58.785Z,93.30
2019-05-14T05:51:28.882Z,92.40
2019-05-14T05:53:58.815Z,91.20
2019-05-14T05:56:28.866Z,90.00
2019-05-14T05:59:00.491Z,87.90
2019-05-14T06:01:41.796Z,87.50
2019-05-14T06:03:59.398Z,86.80
2019-05-14T06:06:28.570Z,85.20
2019-05-14T06:08:58.394Z,82.70
2019-05-14T06:11:29.050Z,85.50
2019-05-14T06:13:58.861Z,83.80
2019-05-14T06:16:28.970Z,79.10
2019-05-14T06:18:58.983Z,82.80
2019-05-14T06:21:29.277Z,84.10
2019-05-14T06:24:02.374Z,77.40
2019-05-14T06:26:29.425Z,77.10
2019-05-14T06:28:59.799Z,78.80
2019-05-14T06:31:29.326Z,77.70
2019-05-14T06:33:59.105Z,79.00
2019-05-14T06:36:29.055Z,76.70
2019-05-14T06:38:58.731Z,78.90
2019-05-14T06:41:28.508Z,74.50
2019-05-14T06:43:59.176Z,74.90
2019-05-14T06:46:28.396Z,73.80
2019-05-14T06:48:59.104Z,70.10
2019-05-14T06:51:28.843Z,72.00
2019-05-14T06:53:58.754Z,71.30
2019-05-14T06:56:28.439Z,72.20
2019-05-14T06:58:58.389Z,74.20
2019-05-14T07:01:29.127Z,66.20
2019-05-14T07:03:58.170Z,67.60
2019-05-14T07:06:29.019Z,72.70
2019-05-14T07:08:58.865Z,65.00
2019-05-14T07:11:29.212Z,66.20
2019-05-14T07:13:58.637Z,63.90
2019-05-14T07:16:28.701Z,70.20
2019-05-14T07:18:59.059Z,66.80
2019-05-14T07:21:29.203Z,64.20
2019-05-14T07:23:59.299Z,65.90
2019-05-14T07:26:29.695Z,65.40
2019-05-14T07:28:59.138Z,62.90
2019-05-14T07:31:29.168Z,60.50
2019-05-14T07:33:58.401Z,64.50
2019-05-14T07:36:29.357Z,61.60
2019-05-14T07:39:00.191Z,59.70
2019-05-14T07:41:29.038Z,59.60
2019-05-14T07:43:58.684Z,58.80
2019-05-14T07:46:28.371Z,58.70
2019-05-14T07:49:05.341Z,60.20
2019-05-14T07:51:28.490Z,61.70
2019-05-14T07:53:58.059Z,59.70
2019-05-14T07:56:29.267Z,58.10
2019-05-14T07:58:58.542Z,58.00
2019-05-14T08:01:28.680Z,55.90
2019-05-14T08:04:00.138Z,57.00
2019-05-14T08:06:28.515Z,56.50
2019-05-14T08:08:59.263Z,55.30
2019-05-14T08:11:28.142Z,52.60
2019-05-14T08:13:58.543Z,51.00
2019-05-14T08:16:28.823Z,53.50
2019-05-14T08:19:00.101Z,52.00
2019-05-14T08:21:29.054Z,48.40
2019-05-14T08:23:59.348Z,50.40
2019-05-14T08:26:29.341Z,51.20
2019-05-14T08:28:58.663Z,50.20
2019-05-14T08:31:29.268Z,49.30
2019-05-14T08:33:59.171Z,51.20
2019-05-14T08:36:28.697Z,50.60
2019-05-14T08:38:58.195Z,50.50
2019-05-14T08:41:28.889Z,49.20
2019-05-14T08:43:59.596Z,47.40
2019-05-14T08:46:28.437Z,47.60
2019-05-14T08:48:58.613Z,48.10
2019-05-14T08:51:29.633Z,46.40
2019-05-14T08:53:59.241Z,46.10
2019-05-14T08:56:28.336Z,45.70
2019-05-14T08:58:59.104Z,45.90
2019-05-14T09:01:29.264Z,47.40
2019-05-14T09:03:59.508Z,44.30
2019-05-14T09:06:29.099Z,44.80
2019-05-14T09:08:59.515Z,46.30
2019-05-14T09:11:35.487Z,43.50
2019-05-14T09:13:59.484Z,45.50
2019-05-14T09:16:41.864Z,43.60
2019-05-14T09:18:58.904Z,42.90
2019-05-14T09:21:29.623Z,42.90
2019-05-14T09:23:58.845Z,41.40
2019-05-14T09:26:28.555Z,42.00
2019-05-14T09:28:58.649Z,42.50
2019-05-14T09:31:29.555Z,42.10
2019-05-14T09:33:58.939Z,40.00
2019-05-14T09:36:29.013Z,40.60
2019-05-14T09:38:58.434Z,42.40
2019-05-14T09:41:30.716Z,40.10
2019-05-14T09:43:58.799Z,37.60
2019-05-14T09:46:28.932Z,39.40
2019-05-14T09:48:58.907Z,38.30
2019-05-14T09:51:28.837Z,40.00
2019-05-14T09:53:58.943Z,36.70
2019-05-14T09:56:29.092Z,37.70
2019-05-14T09:58:58.710Z,36.40
2019-05-14T10:01:28.014Z,36.90
2019-05-14T10:03:59.202Z,37.30
2019-05-14T10:06:28.463Z,36.80
2019-05-14T10:08:58.998Z,37.70
2019-05-14T10:11:28.777Z,35.70
2019-05-14T10:13:59.840Z,34.30
2019-05-14T10:16:29.105Z,34.70
2019-05-14T10:18:58.549Z,33.80
2019-05-14T10:21:29.304Z,34.90
2019-05-14T10:23:58.541Z,35.70
2019-05-14T10:26:28.942Z,32.90
2019-05-14T10:28:59.058Z,31.60
2019-05-14T10:31:28.890Z,32.60
2019-05-14T10:33:58.877Z,32.90
2019-05-14T10:36:30.082Z,35.10
2019-05-14T10:38:59.020Z,34.30
2019-05-14T10:41:28.980Z,32.80
2019-05-14T10:43:59.118Z,33.20
2019-05-14T10:46:29.367Z,34.70
2019-05-14T10:49:03.532Z,35.10
2019-05-14T10:51:28.758Z,35.40
2019-05-14T10:53:59.468Z,35.90
2019-05-14T10:56:29.738Z,35.70
2019-05-14T10:58:58.556Z,35.70
2019-05-14T11:01:28.476Z,35.40
2019-05-14T11:03:57.492Z,36.10
2019-05-14T11:06:29.085Z,36.90
2019-05-14T11:08:57.376Z,36.90
2019-05-14T11:11:26.068Z,35.50
2019-05-14T11:13:54.820Z,37.20
2019-05-14T11:16:23.535Z,36.50
2019-05-14T11:18:52.645Z,37.10
2019-05-14T11:21:26.519Z,37.40
2019-05-14T11:23:51.981Z,36.70
2019-05-14T11:26:24.582Z,37.40
2019-05-14T11:28:51.909Z,36.50
2019-05-14T11:31:20.656Z,37.60
2019-05-14T11:33:50.061Z,35.70
2019-05-14T11:36:19.291Z,37.20
2019-05-14T11:38:50.670Z,35.10
2019-05-14T11:41:20.806Z,36.10
2019-05-14T11:43:50.208Z,36.80
2019-05-14T11:46:33.831Z,36.00
2019-05-14T11:48:50.035Z,35.50
2019-05-14T11:51:28.382Z,35.10
2019-05-14T11:53:49.830Z,35.20
2019-05-14T11:56:19.585Z,35.80
2019-05-14T11:58:49.369Z,35.10
2019-05-14T12:01:18.823Z,34.00
2019-05-14T12:03:50.523Z,35.20
2019-05-14T12:06:18.860Z,35.10
2019-05-14T12:08:47.846Z,35.10
2019-05-14T12:11:19.280Z,35.50
2019-05-14T12:13:48.881Z,35.70
2019-05-14T12:16:18.308Z,35.90
2019-05-14T12:18:48.427Z,35.10
2019-05-14T12:21:17.903Z,36.00
2019-05-14T12:23:47.016Z,35.50
2019-05-14T12:26:15.831Z,34.60
2019-05-14T12:28:45.556Z,35.40
2019-05-14T12:31:14.237Z,34.80
2019-05-14T12:33:43.363Z,32.90
2019-05-14T12:36:12.473Z,32.70
2019-05-14T12:38:41.582Z,34.00
2019-05-14T12:41:10.583Z,33.40
2019-05-14T12:43:40.215Z,34.40
2019-05-14T12:46:10.574Z,34.90
2019-05-14T12:48:39.993Z,34.70
2019-05-14T12:51:09.406Z,34.60
2019-05-14T12:53:39.429Z,34.20
2019-05-14T12:56:08.828Z,34.00
2019-05-14T12:58:44.594Z,33.50
2019-05-14T13:01:09.314Z,32.50
2019-05-14T13:03:38.301Z,34.10
2019-05-14T13:06:10.139Z,33.40
2019-05-14T13:08:38.687Z,33.10
2019-05-14T13:11:09.695Z,33.10
2019-05-14T13:13:42.383Z,34.50
2019-05-14T13:16:09.066Z,33.30
2019-05-14T13:18:38.803Z,34.00
2019-05-14T13:21:08.288Z,34.10
2019-05-14T13:23:38.421Z,34.10
2019-05-14T13:26:10.551Z,34.20
2019-05-14T13:28:39.732Z,35.10
2019-05-14T13:31:09.561Z,35.70
2019-05-14T13:33:39.300Z,35.30
2019-05-14T13:36:08.474Z,36.60
2019-05-14T13:38:39.742Z,36.60
2019-05-14T13:41:08.705Z,36.90
2019-05-14T13:43:39.075Z,37.50
2019-05-14T13:46:10.001Z,37.40
2019-05-14T13:48:43.124Z,38.00
2019-05-14T13:51:09.892Z,38.60
2019-05-14T13:53:39.172Z,38.90
2019-05-14T13:56:09.236Z,38.90
2019-05-14T13:58:38.287Z,39.40
2019-05-14T14:01:09.701Z,40.30
2019-05-14T14:03:47.040Z,40.30
2019-05-14T14:06:10.512Z,40.90
2019-05-14T14:08:42.453Z,40.40
2019-05-14T14:11:12.688Z,41.70
2019-05-14T14:13:40.207Z,41.50
2019-05-14T14:16:14.831Z,42.30
2019-05-14T14:18:39.910Z,42.00
2019-05-14T14:21:09.642Z,41.80
2019-05-14T14:23:39.459Z,42.70
2019-05-14T14:26:09.627Z,41.80
2019-05-14T14:28:39.833Z,42.90
2019-05-14T14:31:10.948Z,42.70
2019-05-14T14:33:39.745Z,43.30
2019-05-14T14:36:08.987Z,43.00
2019-05-14T14:38:40.188Z,42.60
2019-05-14T14:41:09.963Z,42.20
2019-05-14T14:43:43.431Z,42.20
2019-05-14T14:46:14.096Z,42.50
2019-05-14T14:48:40.584Z,41.80
2019-05-14T14:51:09.715Z,43.80
2019-05-14T14:53:52.946Z,43.30
2019-05-14T14:56:09.859Z,42.50
2019-05-14T14:58:39.430Z,42.50
2019-05-14T15:01:09.011Z,43.50
2019-05-14T15:03:38.516Z,43.90
2019-05-14T15:06:09.593Z,43.60
2019-05-14T15:08:39.107Z,43.00
2019-05-14T15:11:08.869Z,43.90
2019-05-14T15:13:39.114Z,42.90
2019-05-14T15:16:13.421Z,42.90
2019-05-14T15:18:38.918Z,43.10
2019-05-14T15:21:09.792Z,43.40
2019-05-14T15:23:42.528Z,43.90
2019-05-14T15:26:12.051Z,44.50
2019-05-14T15:28:39.533Z,44.30
2019-05-14T15:31:09.045Z,44.50
2019-05-14T15:33:38.248Z,44.40
2019-05-14T15:36:09.144Z,44.70
2019-05-14T15:38:39.763Z,44.40
2019-05-14T15:41:12.712Z,44.70
2019-05-14T15:43:39.434Z,45.90
2019-05-14T15:46:08.882Z,46.00
2019-05-14T15:48:39.397Z,46.40
2019-05-14T15:51:11.496Z,46.80
2019-05-14T15:53:38.977Z,47.00
2019-05-14T15:56:08.403Z,47.20
2019-05-14T15:58:39.013Z,46.40
2019-05-14T16:01:09.914Z,47.10
2019-05-14T16:03:41.567Z,48.10
2019-05-14T16:06:10.048Z,48.80
2019-05-14T16:08:40.129Z,48.40
2019-05-14T16:11:11.529Z,48.90
2019-05-14T16:13:40.172Z,49.30
2019-05-14T16:16:10.592Z,49.10
2019-05-14T16:18:40.003Z,49.20
2019-05-14T16:21:10.494Z,49.40
2019-05-14T16:23:39.942Z,49.90
2019-05-14T16:26:08.986Z,49.20
2019-05-14T16:28:39.382Z,49.40
2019-05-14T16:31:08.749Z,49.90
2019-05-14T16:33:40.371Z,50.20
2019-05-14T16:36:10.449Z,51.00
2019-05-14T16:38:40.555Z,51.70
2019-05-14T16:41:09.303Z,52.40
2019-05-14T16:43:40.050Z,52.50
2019-05-14T16:46:09.576Z,52.30
2019-05-14T16:48:39.727Z,52.90
2019-05-14T16:51:09.205Z,53.00
2019-05-14T16:53:40.383Z,53.90
2019-05-14T16:56:09.462Z,54.00
2019-05-14T16:58:38.780Z,53.70
2019-05-14T17:01:09.787Z,54.00
2019-05-14T17:03:39.783Z,53.20
2019-05-14T17:06:08.810Z,53.50
2019-05-14T17:08:39.365Z,53.20
2019-05-14T17:11:08.990Z,53.30
2019-05-14T17:13:38.404Z,54.00
2019-05-14T17:16:08.567Z,54.40
2019-05-14T17:18:37.954Z,54.40
2019-05-14T17:21:09.185Z,54.70
2019-05-14T17:23:39.275Z,55.00
2019-05-14T17:26:09.017Z,55.30
2019-05-14T17:28:40.506Z,55.50
2019-05-14T17:31:08.559Z,55.80
2019-05-14T17:33:39.436Z,56.30
2019-05-14T17:36:09.707Z,56.70
2019-05-14T17:38:39.945Z,56.40
2019-05-14T17:41:09.595Z,57.20
2019-05-14T17:43:39.421Z,57.80
2019-05-14T17:46:09.851Z,58.70
2019-05-14T17:48:40.346Z,59.40
2019-05-14T17:51:09.499Z,59.60
2019-05-14T17:53:38.806Z,61.10
2019-05-14T17:56:08.689Z,63.50
2019-05-14T17:58:38.397Z,66.60
2019-05-14T18:01:09.133Z,68.70
2019-05-14T18:03:39.934Z,68.90
2019-05-14T18:06:09.401Z,70.80
2019-05-14T18:08:38.712Z,70.40
2019-05-14T18:11:08.779Z,70.90
2019-05-14T18:13:39.037Z,70.90
2019-05-14T18:16:09.182Z,71.60
2019-05-14T18:18:38.518Z,71.00
2019-05-14T18:21:09.286Z,72.30
2019-05-14T18:23:41.726Z,73.00
2019-05-14T18:26:09.195Z,71.90
2019-05-14T18:28:38.453Z,72.40
2019-05-14T18:31:09.430Z,72.60
2019-05-14T18:33:40.073Z,72.30
2019-05-14T18:36:09.684Z,73.90
2019-05-14T18:38:39.007Z,73.00
2019-05-14T18:41:08.643Z,72.90
2019-05-14T18:43:37.987Z,74.00
2019-05-14T18:46:08.457Z,74.10
2019-05-14T18:48:37.545Z,74.20
2019-05-14T18:51:08.645Z,73.70
2019-05-14T18:53:38.451Z,75.30
2019-05-14T18:56:17.413Z,75.20
2019-05-14T18:58:38.676Z,76.10
2019-05-14T19:01:11.002Z,77.40
2019-05-14T19:03:40.204Z,76.80
2019-05-14T19:06:09.294Z,77.50
2019-05-14T19:08:39.569Z,79.50
2019-05-14T19:11:08.833Z,79.00
2019-05-14T19:13:38.970Z,78.10
2019-05-14T19:16:08.444Z,79.30
2019-05-14T19:18:38.541Z,78.80
2019-05-14T19:21:08.798Z,78.50
2019-05-14T19:23:38.645Z,80.80
2019-05-14T19:26:09.585Z,80.50
2019-05-14T19:28:39.018Z,80.00
2019-05-14T19:31:09.192Z,81.60
2019-05-14T19:33:38.565Z,82.00
2019-05-14T19:36:08.775Z,83.00
2019-05-14T19:38:39.048Z,79.70
2019-05-14T19:41:08.944Z,83.30
2019-05-14T19:43:37.738Z,83.40
2019-05-14T19:46:08.594Z,80.50
2019-05-14T19:48:37.242Z,81.10
2019-05-14T19:51:08.243Z,81.50
2019-05-14T19:53:39.230Z,80.10
2019-05-14T19:56:08.262Z,82.10
2019-05-14T19:58:38.328Z,79.00
2019-05-14T20:01:09.102Z,80.30
2019-05-14T20:03:38.675Z,79.60
2019-05-14T20:06:09.046Z,78.20
2019-05-14T20:08:38.690Z,80.40
2019-05-14T20:11:07.785Z,79.20
2019-05-14T20:13:38.931Z,80.30
2019-05-14T20:16:08.691Z,79.50
2019-05-14T20:18:38.364Z,80.70
2019-05-14T20:21:08.719Z,83.80
2019-05-14T20:23:38.654Z,82.40
2019-05-14T20:26:08.358Z,82.70
2019-05-14T20:28:38.966Z,84.00
2019-05-14T20:31:09.886Z,86.40
2019-05-14T20:33:39.041Z,84.40
2019-05-14T20:36:08.442Z,86.50
2019-05-14T20:38:38.756Z,87.10
2019-05-14T20:41:08.686Z,87.10
2019-05-14T20:43:38.560Z,86.00
2019-05-14T20:46:07.852Z,84.50
2019-05-14T20:48:39.156Z,86.30
2019-05-14T20:51:08.976Z,85.70
2019-05-14T20:53:39.674Z,87.90
2019-05-14T20:56:09.079Z,87.30
2019-05-14T20:58:38.865Z,88.40
2019-05-14T21:01:11.117Z,88.30
2019-05-14T21:03:38.722Z,88.30
2019-05-14T21:06:09.086Z,86.50
2019-05-14T21:08:38.084Z,88.10
2019-05-14T21:11:08.234Z,89.40
2019-05-14T21:13:37.668Z,87.30
2019-05-14T21:16:08.389Z,86.90
2019-05-14T21:18:40.920Z,88.80
2019-05-14T21:21:10.904Z,88.00
2019-05-14T21:23:38.917Z,89.90
2019-05-14T21:26:08.595Z,88.10
2019-05-14T21:28:39.326Z,87.20
2019-05-14T21:31:10.469Z,90.00
2019-05-14T21:33:39.293Z,89.70
2019-05-14T21:36:09.435Z,90.40
2019-05-14T21:38:41.045Z,90.50
2019-05-14T21:41:09.439Z,88.40
2019-05-14T21:43:38.560Z,90.40
2019-05-14T21:46:08.191Z,90.50
2019-05-14T21:48:38.741Z,90.60
2019-05-14T21:51:08.707Z,88.80
2019-05-14T21:53:41.043Z,90.50
2019-05-14T21:56:08.675Z,87.80
2019-05-14T21:58:38.709Z,90.30
2019-05-14T22:01:09.452Z,90.20
2019-05-14T22:03:40.248Z,90.60
2019-05-14T22:06:09.467Z,90.10
2019-05-14T22:08:39.239Z,88.50
2019-05-14T22:11:08.303Z,90.20
2019-05-14T22:13:38.146Z,90.30
2019-05-14T22:16:08.420Z,89.20
2019-05-14T22:18:40.678Z,91.10
2019-05-14T22:21:09.792Z,91.10
2019-05-14T22:23:39.034Z,91.50
2019-05-14T22:26:08.089Z,91.70
2019-05-14T22:28:37.178Z,91.40
2019-05-14T22:31:08.872Z,91.00
2019-05-14T22:33:38.139Z,91.40
2019-05-14T22:36:08.717Z,90.90
2019-05-14T22:38:38.871Z,91.10
2019-05-14T22:41:08.312Z,91.20
2019-05-14T22:43:38.760Z,91.80
2019-05-14T22:46:08.460Z,91.90
2019-05-14T22:48:37.651Z,90.70
2019-05-14T22:51:08.655Z,91.20
2019-05-14T22:53:38.961Z,91.50
2019-05-14T22:56:08.607Z,90.40
2019-05-14T22:58:38.369Z,90.80
2019-05-14T23:01:14.716Z,90.80
2019-05-14T23:03:39.736Z,91.00
2019-05-14T23:06:09.004Z,91.00
2019-05-14T23:08:39.096Z,91.90
2019-05-14T23:11:08.776Z,91.10
2019-05-14T23:13:39.183Z,92.20
2019-05-14T23:16:09.166Z,92.20
2019-05-14T23:18:38.275Z,92.00
2019-05-14T23:21:08.825Z,91.70
2019-05-14T23:23:39.248Z,92.10
2019-05-14T23:26:08.714Z,92.10
2019-05-14T23:28:45.305Z,91.60
2019-05-14T23:31:09.007Z,92.30
2019-05-14T23:33:38.809Z,90.90
2019-05-14T23:36:08.737Z,91.60
2019-05-14T23:38:39.506Z,91.30
2019-05-14T23:41:08.933Z,92.20
2019-05-14T23:43:39.269Z,92.40
2019-05-14T23:46:09.317Z,90.80
2019-05-14T23:48:39.822Z,92.30
2019-05-14T23:51:08.558Z,92.50
2019-05-14T23:53:39.080Z,92.70
2019-05-14T23:56:08.971Z,92.70
2019-05-14T23:58:38.566Z,91.50
